Adair, Illinois
Current Conditions -  °F | °C
As of 8:35 PM on Friday 28 Nov 2014 (Local Time) from KMQB Reporting Station
Clear Clear  
Wind Chill: 26°   Ceiling: Unl
Heat Index: 34°   Visibility: 10mi
Dew Point: 32°   Wind: 9mph
Humidity: 93%   Direction: 150°SSE
Pressure: 29.85"   Gusts: NA
Location:  40.42°N, 90.5°W
Report Text: KMQB 290235Z AUTO 15008KT 10SM CLR 01/00 A2985 RMK AO2 T00100000
Loading
Personal Weather Stations






























Interactive Weather Map New forecast layout! Learn more

10-Day Weather Forecast

Advertisements
Track Severe Weather on mobile